sensor_id;sensor_type;location;lat;lon;timestamp;pressure;altitude;pressure_sealevel;temperature;humidity
50790;BME280;37287;47.554;7.844;2024-03-23T00:53:51;97373.56;;;8.34;100.00
50790;BME280;37287;47.554;7.844;2024-03-23T00:56:17;97371.25;;;8.36;100.00
50790;BME280;37287;47.554;7.844;2024-03-23T00:58:43;97363.56;;;8.38;100.00
50790;BME280;37287;47.554;7.844;2024-03-23T01:01:08;97358.19;;;8.42;100.00
50790;BME280;37287;47.554;7.844;2024-03-23T01:03:34;97357.03;;;8.43;100.00
50790;BME280;37287;47.554;7.844;2024-03-23T01:06:02;97350.59;;;8.51;100.00
50790;BME280;37287;47.554;7.844;2024-03-23T01:08:28;97354.44;;;8.50;100.00
50790;BME280;37287;47.554;7.844;2024-03-23T01:10:58;97344.81;;;8.56;100.00
50790;BME280;37287;47.554;7.844;2024-03-23T01:13:25;97354.56;;;8.68;100.00
50790;BME280;37287;47.554;7.844;2024-03-23T01:15:52;97343.81;;;8.75;100.00
50790;BME280;37287;47.554;7.844;2024-03-23T01:18:18;97345.38;;;8.80;100.00
50790;BME280;37287;47.554;7.844;2024-03-23T01:20:45;97334.97;;;8.78;100.00
50790;BME280;37287;47.554;7.844;2024-03-23T01:23:11;97332.50;;;8.59;100.00
50790;BME280;37287;47.554;7.844;2024-03-23T01:25:37;97335.47;;;8.43;100.00
50790;BME280;37287;47.554;7.844;2024-03-23T01:28:03;97330.41;;;8.34;100.00
50790;BME280;37287;47.554;7.844;2024-03-23T01:30:30;97327.66;;;8.31;100.00
50790;BME280;37287;47.554;7.844;2024-03-23T01:32:56;97327.28;;;8.32;100.00
50790;BME280;37287;47.554;7.844;2024-03-23T01:35:22;97326.16;;;8.37;100.00
50790;BME280;37287;47.554;7.844;2024-03-23T01:37:48;97322.06;;;8.50;100.00
50790;BME280;37287;47.554;7.844;2024-03-23T01:40:13;97316.66;;;8.54;100.00
50790;BME280;37287;47.554;7.844;2024-03-23T01:42:39;97322.09;;;8.57;100.00
50790;BME280;37287;47.554;7.844;2024-03-23T01:45:07;97318.69;;;8.64;100.00
50790;BME280;37287;47.554;7.844;2024-03-23T01:47:33;97304.47;;;8.74;100.00
50790;BME280;37287;47.554;7.844;2024-03-23T01:49:59;97312.97;;;8.80;100.00
50790;BME280;37287;47.554;7.844;2024-03-23T01:52:26;97300.66;;;8.83;100.00
50790;BME280;37287;47.554;7.844;2024-03-23T01:54:53;97299.13;;;8.85;100.00
50790;BME280;37287;47.554;7.844;2024-03-23T01:57:19;97292.19;;;8.88;100.00
50790;BME280;37287;47.554;7.844;2024-03-23T01:59:48;97299.13;;;8.89;100.00
50790;BME280;37287;47.554;7.844;2024-03-23T02:02:14;97308.44;;;8.95;100.00
50790;BME280;37287;47.554;7.844;2024-03-23T02:04:43;97298.41;;;8.99;100.00
50790;BME280;37287;47.554;7.844;2024-03-23T02:07:08;97300.34;;;8.99;100.00
50790;BME280;37287;47.554;7.844;2024-03-23T02:09:35;97293.41;;;9.01;100.00
50790;BME280;37287;47.554;7.844;2024-03-23T02:12:04;97296.13;;;9.01;100.00
50790;BME280;37287;47.554;7.844;2024-03-23T02:14:30;97300.75;;;9.04;100.00
50790;BME280;37287;47.554;7.844;2024-03-23T02:16:56;97298.06;;;9.01;100.00
50790;BME280;37287;47.554;7.844;2024-03-23T02:19:21;97292.28;;;9.02;100.00
50790;BME280;37287;47.554;7.844;2024-03-23T02:21:47;97291.88;;;9.00;100.00
50790;BME280;37287;47.554;7.844;2024-03-23T02:24:13;97286.06;;;8.94;100.00
50790;BME280;37287;47.554;7.844;2024-03-23T02:26:39;97285.66;;;8.89;100.00
50790;BME280;37287;47.554;7.844;2024-03-23T02:29:04;97276.75;;;8.85;100.00
50790;BME280;37287;47.554;7.844;2024-03-23T02:31:30;97274.47;;;8.87;100.00
50790;BME280;37287;47.554;7.844;2024-03-23T02:33:56;97266.75;;;8.89;100.00
50790;BME280;37287;47.554;7.844;2024-03-23T02:36:22;97269.84;;;8.87;100.00
50790;BME280;37287;47.554;7.844;2024-03-23T02:38:47;97265.56;;;8.86;100.00
50790;BME280;37287;47.554;7.844;2024-03-23T02:41:13;97255.53;;;8.83;100.00
50790;BME280;37287;47.554;7.844;2024-03-23T02:43:39;97251.25;;;8.71;100.00
50790;BME280;37287;47.554;7.844;2024-03-23T02:46:05;97258.16;;;8.65;100.00
50790;BME280;37287;47.554;7.844;2024-03-23T02:48:30;97256.63;;;8.68;100.00
50790;BME280;37287;47.554;7.844;2024-03-23T02:50:56;97250.44;;;8.64;100.00
50790;BME280;37287;47.554;7.844;2024-03-23T02:53:22;97247.41;;;8.72;100.00
50790;BME280;37287;47.554;7.844;2024-03-23T02:55:48;97247.44;;;8.80;100.00
50790;BME280;37287;47.554;7.844;2024-03-23T02:58:13;97236.66;;;8.83;100.00
50790;BME280;37287;47.554;7.844;2024-03-23T03:00:39;97224.69;;;8.88;100.00
50790;BME280;37287;47.554;7.844;2024-03-23T03:03:06;97227.41;;;8.84;100.00
50790;BME280;37287;47.554;7.844;2024-03-23T03:05:32;97229.69;;;8.82;100.00
50790;BME280;37287;47.554;7.844;2024-03-23T03:07:58;97226.63;;;8.87;100.00
50790;BME280;37287;47.554;7.844;2024-03-23T03:10:24;97225.88;;;8.87;100.00
50790;BME280;37287;47.554;7.844;2024-03-23T03:12:49;97225.13;;;8.90;100.00
50790;BME280;37287;47.554;7.844;2024-03-23T03:15:15;97226.66;;;8.91;100.00
50790;BME280;37287;47.554;7.844;2024-03-23T03:17:41;97216.25;;;8.93;100.00
50790;BME280;37287;47.554;7.844;2024-03-23T03:20:07;97219.34;;;8.95;100.00
50790;BME280;37287;47.554;7.844;2024-03-23T03:22:39;97206.63;;;8.95;100.00
50790;BME280;37287;47.554;7.844;2024-03-23T03:25:09;97198.50;;;8.88;100.00
50790;BME280;37287;47.554;7.844;2024-03-23T03:27:35;97196.19;;;8.87;100.00
50790;BME280;37287;47.554;7.844;2024-03-23T03:30:01;97184.19;;;8.81;100.00
50790;BME280;37287;47.554;7.844;2024-03-23T03:32:32;97172.63;;;8.80;100.00
50790;BME280;37287;47.554;7.844;2024-03-23T03:34:58;97169.56;;;8.78;100.00
50790;BME280;37287;47.554;7.844;2024-03-23T03:37:24;97170.31;;;8.78;100.00
50790;BME280;37287;47.554;7.844;2024-03-23T03:39:49;97159.50;;;8.82;100.00
50790;BME280;37287;47.554;7.844;2024-03-23T03:42:15;97159.53;;;8.86;100.00
50790;BME280;37287;47.554;7.844;2024-03-23T03:44:41;97157.25;;;8.91;100.00
50790;BME280;37287;47.554;7.844;2024-03-23T03:47:07;97142.22;;;8.94;100.00
50790;BME280;37287;47.554;7.844;2024-03-23T03:49:33;97132.97;;;8.99;100.00
50790;BME280;37287;47.554;7.844;2024-03-23T03:51:58;97134.13;;;9.01;100.00
50790;BME280;37287;47.554;7.844;2024-03-23T03:54:26;97129.50;;;9.05;100.00
50790;BME280;37287;47.554;7.844;2024-03-23T03:56:52;97120.63;;;9.08;100.00
50790;BME280;37287;47.554;7.844;2024-03-23T03:59:18;97121.03;;;9.10;100.00
50790;BME280;37287;47.554;7.844;2024-03-23T04:01:46;97114.06;;;9.13;100.00
50790;BME280;37287;47.554;7.844;2024-03-23T04:04:12;97117.94;;;9.16;100.00
50790;BME280;37287;47.554;7.844;2024-03-23T04:06:37;97106.34;;;9.19;100.00
50790;BME280;37287;47.554;7.844;2024-03-23T04:09:04;97105.22;;;9.20;100.00
50790;BME280;37287;47.554;7.844;2024-03-23T04:11:30;97100.22;;;9.22;100.00
50790;BME280;37287;47.554;7.844;2024-03-23T04:13:55;97101.75;;;9.26;100.00
50790;BME280;37287;47.554;7.844;2024-03-23T04:16:27;97097.13;;;9.31;100.00
50790;BME280;37287;47.554;7.844;2024-03-23T04:18:52;97092.50;;;9.35;100.00
50790;BME280;37287;47.554;7.844;2024-03-23T04:21:18;97090.16;;;9.37;100.00
50790;BME280;37287;47.554;7.844;2024-03-23T04:23:44;97104.47;;;9.44;100.00
50790;BME280;37287;47.554;7.844;2024-03-23T04:26:10;97136.47;;;9.50;100.00
50790;BME280;37287;47.554;7.844;2024-03-23T04:28:35;97178.94;;;9.42;100.00
50790;BME280;37287;47.554;7.844;2024-03-23T04:31:04;97204.44;;;9.52;100.00
50790;BME280;37287;47.554;7.844;2024-03-23T04:33:31;97210.59;;;9.49;100.00
50790;BME280;37287;47.554;7.844;2024-03-23T04:35:56;97193.59;;;9.37;100.00
50790;BME280;37287;47.554;7.844;2024-03-23T04:38:22;97206.72;;;9.28;100.00
50790;BME280;37287;47.554;7.844;2024-03-23T04:40:58;97200.53;;;9.24;100.00
50790;BME280;37287;47.554;7.844;2024-03-23T04:43:26;97211.31;;;9.20;100.00
50790;BME280;37287;47.554;7.844;2024-03-23T04:45:52;97225.97;;;9.19;100.00
50790;BME280;37287;47.554;7.844;2024-03-23T04:48:20;97230.59;;;9.19;100.00
50790;BME280;37287;47.554;7.844;2024-03-23T04:50:46;97227.50;;;9.20;100.00
50790;BME280;37287;47.554;7.844;2024-03-23T04:53:11;97237.97;;;9.22;100.00
50790;BME280;37287;47.554;7.844;2024-03-23T04:55:37;97245.28;;;9.25;100.00
50790;BME280;37287;47.554;7.844;2024-03-23T04:58:03;97250.69;;;9.28;100.00
50790;BME280;37287;47.554;7.844;2024-03-23T05:00:29;97234.13;;;9.34;100.00
50790;BME280;37287;47.554;7.844;2024-03-23T05:02:55;97237.22;;;9.43;100.00
50790;BME280;37287;47.554;7.844;2024-03-23T05:05:20;97238.38;;;9.45;100.00
50790;BME280;37287;47.554;7.844;2024-03-23T05:07:46;97239.16;;;9.50;100.00
50790;BME280;37287;47.554;7.844;2024-03-23T05:10:12;97241.47;;;9.51;100.00
50790;BME280;37287;47.554;7.844;2024-03-23T05:12:39;97242.25;;;9.52;100.00
50790;BME280;37287;47.554;7.844;2024-03-23T05:15:05;97251.91;;;9.56;100.00
50790;BME280;37287;47.554;7.844;2024-03-23T05:17:32;97255.00;;;9.58;100.00
50790;BME280;37287;47.554;7.844;2024-03-23T05:19:58;97260.00;;;9.60;100.00
50790;BME280;37287;47.554;7.844;2024-03-23T05:22:24;97248.06;;;9.61;100.00
50790;BME280;37287;47.554;7.844;2024-03-23T05:24:50;97252.31;;;9.62;100.00
50790;BME280;37287;47.554;7.844;2024-03-23T05:27:16;97265.41;;;9.60;100.00
50790;BME280;37287;47.554;7.844;2024-03-23T05:29:41;97263.13;;;9.62;100.00
50790;BME280;37287;47.554;7.844;2024-03-23T05:32:07;97269.69;;;9.64;100.00
50790;BME280;37287;47.554;7.844;2024-03-23T05:34:33;97275.84;;;9.65;100.00
50790;BME280;37287;47.554;7.844;2024-03-23T05:36:59;97279.31;;;9.66;100.00
50790;BME280;37287;47.554;7.844;2024-03-23T05:39:25;97275.09;;;9.64;100.00
50790;BME280;37287;47.554;7.844;2024-03-23T05:41:50;97271.22;;;9.62;100.00
50790;BME280;37287;47.554;7.844;2024-03-23T05:44:16;97275.06;;;9.61;100.00
50790;BME280;37287;47.554;7.844;2024-03-23T05:46:42;97277.03;;;9.60;100.00
50790;BME280;37287;47.554;7.844;2024-03-23T05:49:14;97285.09;;;9.57;100.00
50790;BME280;37287;47.554;7.844;2024-03-23T05:51:39;97288.56;;;9.54;100.00
50790;BME280;37287;47.554;7.844;2024-03-23T05:54:05;97284.72;;;9.55;100.00
50790;BME280;37287;47.554;7.844;2024-03-23T05:56:31;97303.25;;;9.53;100.00
50790;BME280;37287;47.554;7.844;2024-03-23T05:58:57;97291.66;;;9.52;100.00
50790;BME280;37287;47.554;7.844;2024-03-23T06:01:22;97307.13;;;9.52;100.00
50790;BME280;37287;47.554;7.844;2024-03-23T06:03:48;97305.56;;;9.51;100.00
50790;BME280;37287;47.554;7.844;2024-03-23T06:06:14;97300.16;;;9.51;100.00
50790;BME280;37287;47.554;7.844;2024-03-23T06:08:40;97315.97;;;9.49;100.00
50790;BME280;37287;47.554;7.844;2024-03-23T06:11:06;97329.84;;;9.47;100.00
50790;BME280;37287;47.554;7.844;2024-03-23T06:13:32;97323.31;;;9.44;100.00
50790;BME280;37287;47.554;7.844;2024-03-23T06:16:00;97327.53;;;9.42;100.00
50790;BME280;37287;47.554;7.844;2024-03-23T06:18:26;97333.31;;;9.40;100.00
50790;BME280;37287;47.554;7.844;2024-03-23T06:20:52;97314.00;;;9.38;100.00
50790;BME280;37287;47.554;7.844;2024-03-23T06:23:17;97338.72;;;9.37;100.00
50790;BME280;37287;47.554;7.844;2024-03-23T06:25:46;97336.38;;;9.35;100.00
50790;BME280;37287;47.554;7.844;2024-03-23T06:28:12;97337.91;;;9.33;100.00
50790;BME280;37287;47.554;7.844;2024-03-23T06:30:38;97335.22;;;9.29;100.00
50790;BME280;37287;47.554;7.844;2024-03-23T06:33:04;97346.00;;;9.25;100.00
50790;BME280;37287;47.554;7.844;2024-03-23T06:35:31;97345.19;;;9.21;100.00
50790;BME280;37287;47.554;7.844;2024-03-23T06:37:57;97350.22;;;9.19;100.00
50790;BME280;37287;47.554;7.844;2024-03-23T06:40:24;97346.34;;;9.17;100.00
50790;BME280;37287;47.554;7.844;2024-03-23T06:42:49;97357.91;;;9.14;100.00
50790;BME280;37287;47.554;7.844;2024-03-23T06:45:16;97357.50;;;9.11;100.00
50790;BME280;37287;47.554;7.844;2024-03-23T06:47:42;97364.03;;;9.07;100.00
50790;BME280;37287;47.554;7.844;2024-03-23T06:50:08;97373.66;;;9.04;100.00
50790;BME280;37287;47.554;7.844;2024-03-23T06:52:35;97379.06;;;9.01;100.00
50790;BME280;37287;47.554;7.844;2024-03-23T06:55:01;97386.75;;;8.99;100.00
50790;BME280;37287;47.554;7.844;2024-03-23T06:57:29;97395.22;;;8.97;100.00
50790;BME280;37287;47.554;7.844;2024-03-23T06:59:55;97417.19;;;8.95;100.00
50790;BME280;37287;47.554;7.844;2024-03-23T07:02:21;97417.97;;;8.92;100.00
50790;BME280;37287;47.554;7.844;2024-03-23T07:04:47;97427.91;;;8.85;100.00
50790;BME280;37287;47.554;7.844;2024-03-23T07:07:12;97446.38;;;8.75;100.00
50790;BME280;37287;47.554;7.844;2024-03-23T07:09:38;97452.03;;;8.63;100.00
50790;BME280;37287;47.554;7.844;2024-03-23T07:12:04;97458.53;;;8.55;100.00
50790;BME280;37287;47.554;7.844;2024-03-23T07:14:30;97474.59;;;8.44;100.00
50790;BME280;37287;47.554;7.844;2024-03-23T07:16:56;97472.59;;;8.37;100.00
50790;BME280;37287;47.554;7.844;2024-03-23T07:19:22;97486.34;;;8.25;100.00
50790;BME280;37287;47.554;7.844;2024-03-23T07:21:48;97495.09;;;8.15;100.00
50790;BME280;37287;47.554;7.844;2024-03-23T07:24:15;97511.50;;;8.02;100.00
50790;BME280;37287;47.554;7.844;2024-03-23T07:26:40;97526.41;;;7.92;100.00
50790;BME280;37287;47.554;7.844;2024-03-23T07:29:06;97540.94;;;7.84;100.00
50790;BME280;37287;47.554;7.844;2024-03-23T07:31:32;97547.78;;;7.78;100.00
50790;BME280;37287;47.554;7.844;2024-03-23T07:33:58;97557.34;;;7.72;100.00
50790;BME280;37287;47.554;7.844;2024-03-23T07:36:24;97569.19;;;7.67;100.00
50790;BME280;37287;47.554;7.844;2024-03-23T07:38:50;97576.09;;;7.65;100.00
50790;BME280;37287;47.554;7.844;2024-03-23T07:41:20;97577.19;;;7.60;100.00
50790;BME280;37287;47.554;7.844;2024-03-23T07:43:47;97602.88;;;7.54;100.00
50790;BME280;37287;47.554;7.844;2024-03-23T07:46:15;97597.38;;;7.47;100.00
50790;BME280;37287;47.554;7.844;2024-03-23T07:48:40;97633.47;;;7.42;100.00
50790;BME280;37287;47.554;7.844;2024-03-23T07:51:16;97644.91;;;7.35;100.00
50790;BME280;37287;47.554;7.844;2024-03-23T07:53:43;97635.56;;;7.29;100.00
50790;BME280;37287;47.554;7.844;2024-03-23T07:56:10;97643.97;;;7.24;100.00
50790;BME280;37287;47.554;7.844;2024-03-23T07:58:36;97646.22;;;7.22;100.00
50790;BME280;37287;47.554;7.844;2024-03-23T08:03:36;97653.56;;;7.25;100.00
50790;BME280;37287;47.554;7.844;2024-03-23T08:06:19;97673.16;;;7.22;100.00
50790;BME280;37287;47.554;7.844;2024-03-23T08:08:51;97665.78;;;7.19;100.00
50790;BME280;37287;47.554;7.844;2024-03-23T08:11:31;97667.63;;;7.15;100.00
50790;BME280;37287;47.554;7.844;2024-03-23T08:13:58;97669.91;;;7.13;100.00
50790;BME280;37287;47.554;7.844;2024-03-23T08:16:24;97684.16;;;7.13;100.00
50790;BME280;37287;47.554;7.844;2024-03-23T08:18:53;97686.75;;;7.10;100.00
50790;BME280;37287;47.554;7.844;2024-03-23T08:21:21;97698.97;;;7.03;100.00
50790;BME280;37287;47.554;7.844;2024-03-23T08:23:46;97697.00;;;7.00;100.00
50790;BME280;37287;47.554;7.844;2024-03-23T08:26:15;97691.97;;;6.99;100.00
50790;BME280;37287;47.554;7.844;2024-03-23T08:28:42;97698.91;;;7.00;100.00
50790;BME280;37287;47.554;7.844;2024-03-23T08:31:08;97704.63;;;6.98;100.00
50790;BME280;37287;47.554;7.844;2024-03-23T08:33:34;97694.72;;;7.02;100.00
50790;BME280;37287;47.554;7.844;2024-03-23T08:36:05;97694.91;;;7.13;100.00
50790;BME280;37287;47.554;7.844;2024-03-23T08:38:31;97681.66;;;7.24;100.00
50790;BME280;37287;47.554;7.844;2024-03-23T08:43:39;97670.47;;;7.45;100.00
50790;BME280;37287;47.554;7.844;2024-03-23T08:46:12;97665.13;;;7.49;100.00
50790;BME280;37287;47.554;7.844;2024-03-23T08:48:40;97670.59;;;7.52;100.00
50790;BME280;37287;47.554;7.844;2024-03-23T08:51:09;97686.06;;;7.59;100.00
50790;BME280;37287;47.554;7.844;2024-03-23T08:53:35;97670.75;;;7.63;100.00
50790;BME280;37287;47.554;7.844;2024-03-23T08:56:02;97684.75;;;7.72;100.00
50790;BME280;37287;47.554;7.844;2024-03-23T08:58:29;97685.59;;;7.77;100.00
50790;BME280;37287;47.554;7.844;2024-03-23T09:00:56;97688.41;;;7.84;100.00
50790;BME280;37287;47.554;7.844;2024-03-23T09:03:23;97700.03;;;7.88;100.00
50790;BME280;37287;47.554;7.844;2024-03-23T09:05:49;97699.66;;;7.89;100.00
50790;BME280;37287;47.554;7.844;2024-03-23T09:08:15;97693.97;;;7.95;100.00
50790;BME280;37287;47.554;7.844;2024-03-23T09:10:41;97705.22;;;8.00;100.00
50790;BME280;37287;47.554;7.844;2024-03-23T09:13:07;97698.41;;;8.10;100.00
50790;BME280;37287;47.554;7.844;2024-03-23T09:15:38;97707.78;;;8.20;100.00
50790;BME280;37287;47.554;7.844;2024-03-23T09:18:10;97720.22;;;8.24;100.00
50790;BME280;37287;47.554;7.844;2024-03-23T09:20:36;97701.81;;;8.34;100.00
50790;BME280;37287;47.554;7.844;2024-03-23T09:23:02;97703.47;;;8.42;100.00
50790;BME280;37287;47.554;7.844;2024-03-23T09:25:27;97702.72;;;8.41;100.00
50790;BME280;37287;47.554;7.844;2024-03-23T09:27:53;97705.03;;;8.43;100.00
50790;BME280;37287;47.554;7.844;2024-03-23T09:30:19;97718.19;;;8.45;100.00
50790;BME280;37287;47.554;7.844;2024-03-23T09:32:45;97714.38;;;8.46;100.00
50790;BME280;37287;47.554;7.844;2024-03-23T09:35:11;97716.06;;;8.57;100.00
50790;BME280;37287;47.554;7.844;2024-03-23T09:37:40;97719.28;;;8.70;100.00
50790;BME280;37287;47.554;7.844;2024-03-23T09:40:09;97707.53;;;8.86;100.00
50790;BME280;37287;47.554;7.844;2024-03-23T09:42:35;97713.38;;;8.91;100.00
50790;BME280;37287;47.554;7.844;2024-03-23T09:45:01;97692.53;;;8.92;100.00
50790;BME280;37287;47.554;7.844;2024-03-23T09:47:28;97709.63;;;9.00;100.00
50790;BME280;37287;47.554;7.844;2024-03-23T09:49:54;97704.34;;;9.10;100.00
50790;BME280;37287;47.554;7.844;2024-03-23T09:52:20;97683.53;;;9.15;100.00
50790;BME280;37287;47.554;7.844;2024-03-23T09:54:46;97681.38;;;9.27;100.00
50790;BME280;37287;47.554;7.844;2024-03-23T09:57:11;97708.66;;;9.19;100.00
50790;BME280;37287;47.554;7.844;2024-03-23T09:59:37;97712.59;;;9.25;100.00
50790;BME280;37287;47.554;7.844;2024-03-23T10:02:03;97711.53;;;9.33;100.00
50790;BME280;37287;47.554;7.844;2024-03-23T10:04:39;97709.25;;;9.39;100.00
50790;BME280;37287;47.554;7.844;2024-03-23T10:07:18;97704.25;;;9.41;100.00
50790;BME280;37287;47.554;7.844;2024-03-23T10:09:43;97719.38;;;9.49;100.00
50790;BME280;37287;47.554;7.844;2024-03-23T10:12:14;97708.97;;;9.51;100.00
50790;BME280;37287;47.554;7.844;2024-03-23T10:14:40;97688.53;;;9.54;97.59
50790;BME280;37287;47.554;7.844;2024-03-23T10:17:16;97702.09;;;9.61;98.32
50790;BME280;37287;47.554;7.844;2024-03-23T10:19:49;97704.50;;;9.70;96.92
50790;BME280;37287;47.554;7.844;2024-03-23T10:22:21;97704.88;;;9.68;95.34
50790;BME280;37287;47.554;7.844;2024-03-23T10:24:48;97698.72;;;9.71;95.14
50790;BME280;37287;47.554;7.844;2024-03-23T10:27:20;97701.88;;;9.80;93.93
50790;BME280;37287;47.554;7.844;2024-03-23T10:29:46;97700.84;;;9.96;96.04
50790;BME280;37287;47.554;7.844;2024-03-23T10:32:13;97708.91;;;9.89;92.82
50790;BME280;37287;47.554;7.844;2024-03-23T10:34:39;97712.00;;;9.91;92.10
50790;BME280;37287;47.554;7.844;2024-03-23T10:37:06;97708.16;;;9.88;89.02
50790;BME280;37287;47.554;7.844;2024-03-23T10:39:34;97696.91;;;9.83;86.84
50790;BME280;37287;47.554;7.844;2024-03-23T10:42:03;97712.00;;;9.87;91.55
50790;BME280;37287;47.554;7.844;2024-03-23T10:44:29;97712.47;;;10.00;93.41
50790;BME280;37287;47.554;7.844;2024-03-23T10:47:00;97710.16;;;9.98;88.23
50790;BME280;37287;47.554;7.844;2024-03-23T10:49:31;97707.81;;;9.97;88.16
50790;BME280;37287;47.554;7.844;2024-03-23T10:51:59;97702.84;;;10.06;89.41
50790;BME280;37287;47.554;7.844;2024-03-23T10:54:26;97690.50;;;10.05;86.72
50790;BME280;37287;47.554;7.844;2024-03-23T10:56:57;97708.31;;;10.13;86.79
50790;BME280;37287;47.554;7.844;2024-03-23T10:59:26;97710.69;;;10.22;85.40
50790;BME280;37287;47.554;7.844;2024-03-23T11:01:58;97706.47;;;10.32;84.32
50790;BME280;37287;47.554;7.844;2024-03-23T11:04:38;97729.69;;;10.29;83.58
50790;BME280;37287;47.554;7.844;2024-03-23T11:09:49;97716.69;;;9.97;80.90
50790;BME280;37287;47.554;7.844;2024-03-23T11:15:03;97726.56;;;9.75;86.76
50790;BME280;37287;47.554;7.844;2024-03-23T11:17:29;97780.94;;;9.67;91.30
50790;BME280;37287;47.554;7.844;2024-03-23T11:20:05;97799.00;;;8.91;98.07
50790;BME280;37287;47.554;7.844;2024-03-23T11:22:45;97841.47;;;8.17;100.00
50790;BME280;37287;47.554;7.844;2024-03-23T11:25:23;97851.84;;;7.53;100.00
50790;BME280;37287;47.554;7.844;2024-03-23T11:27:53;97853.75;;;7.13;100.00
50790;BME280;37287;47.554;7.844;2024-03-23T11:30:21;97853.31;;;6.76;100.00
50790;BME280;37287;47.554;7.844;2024-03-23T11:32:55;97856.44;;;6.42;100.00
50790;BME280;37287;47.554;7.844;2024-03-23T11:40:35;97861.09;;;5.97;100.00
50790;BME280;37287;47.554;7.844;2024-03-23T11:43:03;97848.06;;;5.99;100.00
50790;BME280;37287;47.554;7.844;2024-03-23T11:45:37;97846.94;;;6.00;100.00
50790;BME280;37287;47.554;7.844;2024-03-23T11:48:07;97866.63;;;6.05;100.00
50790;BME280;37287;47.554;7.844;2024-03-23T11:50:36;97858.34;;;6.10;100.00
50790;BME280;37287;47.554;7.844;2024-03-23T11:53:09;97856.94;;;6.16;100.00
50790;BME280;37287;47.554;7.844;2024-03-23T11:58:07;97848.78;;;6.28;100.00
50790;BME280;37287;47.554;7.844;2024-03-23T12:00:34;97836.53;;;6.47;100.00
50790;BME280;37287;47.554;7.844;2024-03-23T12:03:03;97825.22;;;6.73;100.00
50790;BME280;37287;47.554;7.844;2024-03-23T12:05:30;97825.41;;;7.00;100.00
50790;BME280;37287;47.554;7.844;2024-03-23T12:08:15;97819.00;;;7.24;100.00
50790;BME280;37287;47.554;7.844;2024-03-23T12:10:44;97813.56;;;7.44;100.00
50790;BME280;37287;47.554;7.844;2024-03-23T12:13:11;97816.47;;;7.54;100.00
50790;BME280;37287;47.554;7.844;2024-03-23T12:15:37;97809.84;;;7.71;100.00
50790;BME280;37287;47.554;7.844;2024-03-23T12:18:07;97802.38;;;7.84;100.00
50790;BME280;37287;47.554;7.844;2024-03-23T12:20:33;97799.44;;;8.16;100.00
50790;BME280;37287;47.554;7.844;2024-03-23T12:23:09;97791.31;;;8.39;100.00
50790;BME280;37287;47.554;7.844;2024-03-23T12:25:36;97771.63;;;8.62;100.00
50790;BME280;37287;47.554;7.844;2024-03-23T12:28:02;97768.66;;;8.71;100.00
50790;BME280;37287;47.554;7.844;2024-03-23T12:30:28;97758.22;;;8.69;100.00
50790;BME280;37287;47.554;7.844;2024-03-23T12:32:54;97753.16;;;8.64;100.00
50790;BME280;37287;47.554;7.844;2024-03-23T12:35:20;97751.59;;;8.63;100.00
50790;BME280;37287;47.554;7.844;2024-03-23T12:37:45;97740.03;;;8.63;100.00
50790;BME280;37287;47.554;7.844;2024-03-23T12:40:11;97744.22;;;8.60;100.00
50790;BME280;37287;47.554;7.844;2024-03-23T12:42:37;97732.25;;;8.57;100.00
50790;BME280;37287;47.554;7.844;2024-03-23T12:45:03;97739.88;;;8.52;100.00
50790;BME280;37287;47.554;7.844;2024-03-23T12:47:32;97731.94;;;8.36;100.00
50790;BME280;37287;47.554;7.844;2024-03-23T12:49:58;97733.22;;;8.19;100.00
50790;BME280;37287;47.554;7.844;2024-03-23T12:52:24;97720.97;;;8.25;100.00
50790;BME280;37287;47.554;7.844;2024-03-23T12:54:57;97714.25;;;8.38;100.00
50790;BME280;37287;47.554;7.844;2024-03-23T12:57:24;97703.69;;;8.56;100.00
50790;BME280;37287;47.554;7.844;2024-03-23T12:59:51;97695.06;;;8.74;100.00
50790;BME280;37287;47.554;7.844;2024-03-23T13:02:20;97694.78;;;8.86;100.00
50790;BME280;37287;47.554;7.844;2024-03-23T13:04:49;97682.19;;;8.98;100.00
50790;BME280;37287;47.554;7.844;2024-03-23T13:07:16;97682.00;;;9.17;100.00
50790;BME280;37287;47.554;7.844;2024-03-23T13:09:42;97676.41;;;9.37;100.00
50790;BME280;37287;47.554;7.844;2024-03-23T13:12:08;97671.38;;;9.35;100.00
50790;BME280;37287;47.554;7.844;2024-03-23T13:14:33;97669.44;;;9.32;100.00
50790;BME280;37287;47.554;7.844;2024-03-23T13:16:59;97661.28;;;9.28;100.00
50790;BME280;37287;47.554;7.844;2024-03-23T13:19:25;97675.53;;;9.25;100.00
50790;BME280;37287;47.554;7.844;2024-03-23T13:21:54;97662.97;;;9.40;100.00
50790;BME280;37287;47.554;7.844;2024-03-23T13:24:24;97663.84;;;9.55;100.00
50790;BME280;37287;47.554;7.844;2024-03-23T13:26:53;97659.66;;;9.65;98.80
50790;BME280;37287;47.554;7.844;2024-03-23T13:29:19;97655.34;;;9.57;94.36
50790;BME280;37287;47.554;7.844;2024-03-23T13:31:46;97653.50;;;9.68;90.38
50790;BME280;37287;47.554;7.844;2024-03-23T13:34:12;97657.88;;;9.80;86.87
50790;BME280;37287;47.554;7.844;2024-03-23T13:36:44;97672.09;;;9.73;79.20
50790;BME280;37287;47.554;7.844;2024-03-23T13:39:11;97658.09;;;9.64;76.73
50790;BME280;37287;47.554;7.844;2024-03-23T13:41:41;97656.09;;;9.54;77.17
50790;BME280;37287;47.554;7.844;2024-03-23T13:44:07;97643.72;;;9.49;78.77
50790;BME280;37287;47.554;7.844;2024-03-23T13:46:33;97656.44;;;9.45;79.57
50790;BME280;37287;47.554;7.844;2024-03-23T13:49:00;97649.44;;;9.40;75.81
50790;BME280;37287;47.554;7.844;2024-03-23T13:51:26;97640.59;;;9.43;80.46
50790;BME280;37287;47.554;7.844;2024-03-23T13:53:56;97630.97;;;9.50;77.18
50790;BME280;37287;47.554;7.844;2024-03-23T13:56:28;97634.53;;;9.57;75.94
50790;BME280;37287;47.554;7.844;2024-03-23T13:58:57;97622.97;;;9.64;74.59
50790;BME280;37287;47.554;7.844;2024-03-23T14:01:23;97632.31;;;9.70;73.65
50790;BME280;37287;47.554;7.844;2024-03-23T14:03:50;97619.59;;;9.74;68.06
50790;BME280;37287;47.554;7.844;2024-03-23T14:06:15;97622.34;;;9.85;68.06
50790;BME280;37287;47.554;7.844;2024-03-23T14:08:41;97624.78;;;10.05;68.06
50790;BME280;37287;47.554;7.844;2024-03-23T14:11:09;97615.97;;;10.19;67.67
50790;BME280;37287;47.554;7.844;2024-03-23T14:13:36;97609.03;;;10.25;68.90